sensor_id;sensor_type;location;lat;lon;timestamp;P1;durP1;ratioP1;P2;durP2;ratioP2
39032;SDS011;24794;51.982;5.878;2023-04-25T00:00:24;9.32;;;2.25;;
39032;SDS011;24794;51.982;5.878;2023-04-25T00:01:25;7.57;;;1.83;;
39032;SDS011;24794;51.982;5.878;2023-04-25T00:02:26;4.35;;;1.70;;
39032;SDS011;24794;51.982;5.878;2023-04-25T00:03:28;8.35;;;2.03;;
39032;SDS011;24794;51.982;5.878;2023-04-25T00:04:29;9.63;;;1.70;;
39032;SDS011;24794;51.982;5.878;2023-04-25T00:05:29;7.47;;;1.90;;
39032;SDS011;24794;51.982;5.878;2023-04-25T00:06:31;9.45;;;2.00;;
39032;SDS011;24794;51.982;5.878;2023-04-25T00:07:33;5.65;;;1.80;;
39032;SDS011;24794;51.982;5.878;2023-04-25T00:08:34;6.45;;;1.65;;
39032;SDS011;24794;51.982;5.878;2023-04-25T00:09:35;10.27;;;2.55;;
39032;SDS011;24794;51.982;5.878;2023-04-25T00:10:36;14.65;;;2.70;;
39032;SDS011;24794;51.982;5.878;2023-04-25T00:11:36;13.60;;;2.53;;
39032;SDS011;24794;51.982;5.878;2023-04-25T00:12:37;9.93;;;2.28;;
39032;SDS011;24794;51.982;5.878;2023-04-25T00:13:39;10.88;;;2.13;;
39032;SDS011;24794;51.982;5.878;2023-04-25T00:14:41;15.77;;;2.90;;
39032;SDS011;24794;51.982;5.878;2023-04-25T00:15:42;11.57;;;2.42;;
39032;SDS011;24794;51.982;5.878;2023-04-25T00:16:43;8.30;;;2.25;;
39032;SDS011;24794;51.982;5.878;2023-04-25T00:17:44;8.70;;;2.00;;
39032;SDS011;24794;51.982;5.878;2023-04-25T00:18:45;8.23;;;2.05;;
39032;SDS011;24794;51.982;5.878;2023-04-25T00:19:51;11.13;;;2.53;;
39032;SDS011;24794;51.982;5.878;2023-04-25T00:20:52;11.00;;;2.75;;
39032;SDS011;24794;51.982;5.878;2023-04-25T00:21:52;11.45;;;2.88;;
39032;SDS011;24794;51.982;5.878;2023-04-25T00:22:56;12.02;;;2.83;;
39032;SDS011;24794;51.982;5.878;2023-04-25T00:23:57;11.73;;;2.40;;
39032;SDS011;24794;51.982;5.878;2023-04-25T00:24:57;14.07;;;2.60;;
39032;SDS011;24794;51.982;5.878;2023-04-25T00:26:00;14.45;;;2.38;;
39032;SDS011;24794;51.982;5.878;2023-04-25T00:27:00;10.15;;;2.60;;
39032;SDS011;24794;51.982;5.878;2023-04-25T00:28:01;10.07;;;2.60;;
39032;SDS011;24794;51.982;5.878;2023-04-25T00:29:01;8.98;;;2.30;;
39032;SDS011;24794;51.982;5.878;2023-04-25T00:30:02;12.93;;;2.47;;
39032;SDS011;24794;51.982;5.878;2023-04-25T00:31:03;6.43;;;2.08;;
39032;SDS011;24794;51.982;5.878;2023-04-25T00:32:04;8.60;;;2.28;;
39032;SDS011;24794;51.982;5.878;2023-04-25T00:33:04;15.07;;;2.83;;
39032;SDS011;24794;51.982;5.878;2023-04-25T00:34:06;12.35;;;3.03;;
39032;SDS011;24794;51.982;5.878;2023-04-25T00:35:08;9.20;;;2.70;;
39032;SDS011;24794;51.982;5.878;2023-04-25T00:36:09;8.60;;;2.08;;
39032;SDS011;24794;51.982;5.878;2023-04-25T00:37:10;6.72;;;2.05;;
39032;SDS011;24794;51.982;5.878;2023-04-25T00:38:11;8.77;;;2.35;;
39032;SDS011;24794;51.982;5.878;2023-04-25T00:39:12;8.68;;;2.38;;
39032;SDS011;24794;51.982;5.878;2023-04-25T00:40:12;8.27;;;2.30;;
39032;SDS011;24794;51.982;5.878;2023-04-25T00:41:13;8.90;;;2.42;;
39032;SDS011;24794;51.982;5.878;2023-04-25T00:42:14;11.88;;;2.58;;
39032;SDS011;24794;51.982;5.878;2023-04-25T00:43:15;12.43;;;2.53;;
39032;SDS011;24794;51.982;5.878;2023-04-25T00:44:15;12.38;;;3.28;;
39032;SDS011;24794;51.982;5.878;2023-04-25T00:45:17;10.43;;;2.63;;
39032;SDS011;24794;51.982;5.878;2023-04-25T00:46:18;14.90;;;2.70;;
39032;SDS011;24794;51.982;5.878;2023-04-25T00:47:18;9.55;;;2.53;;
39032;SDS011;24794;51.982;5.878;2023-04-25T00:48:22;8.73;;;2.17;;
39032;SDS011;24794;51.982;5.878;2023-04-25T00:49:23;13.63;;;3.20;;
39032;SDS011;24794;51.982;5.878;2023-04-25T00:50:24;10.80;;;2.90;;
39032;SDS011;24794;51.982;5.878;2023-04-25T00:51:25;9.80;;;2.65;;
39032;SDS011;24794;51.982;5.878;2023-04-25T00:52:26;10.68;;;2.70;;
39032;SDS011;24794;51.982;5.878;2023-04-25T00:53:28;14.80;;;2.97;;
39032;SDS011;24794;51.982;5.878;2023-04-25T00:54:30;14.05;;;3.20;;
39032;SDS011;24794;51.982;5.878;2023-04-25T00:55:31;14.45;;;3.33;;
39032;SDS011;24794;51.982;5.878;2023-04-25T00:56:32;12.88;;;3.20;;
39032;SDS011;24794;51.982;5.878;2023-04-25T00:57:32;9.15;;;2.50;;
39032;SDS011;24794;51.982;5.878;2023-04-25T00:58:34;16.23;;;2.67;;
39032;SDS011;24794;51.982;5.878;2023-04-25T00:59:35;10.48;;;3.10;;
39032;SDS011;24794;51.982;5.878;2023-04-25T01:00:37;11.32;;;2.75;;
39032;SDS011;24794;51.982;5.878;2023-04-25T01:01:40;13.00;;;2.90;;
39032;SDS011;24794;51.982;5.878;2023-04-25T01:02:41;11.65;;;3.20;;
39032;SDS011;24794;51.982;5.878;2023-04-25T01:03:43;11.68;;;2.80;;
39032;SDS011;24794;51.982;5.878;2023-04-25T01:04:47;14.32;;;2.70;;
39032;SDS011;24794;51.982;5.878;2023-04-25T01:05:48;11.60;;;2.65;;
39032;SDS011;24794;51.982;5.878;2023-04-25T01:06:49;12.88;;;3.30;;
39032;SDS011;24794;51.982;5.878;2023-04-25T01:07:49;14.60;;;2.95;;
39032;SDS011;24794;51.982;5.878;2023-04-25T01:08:51;11.30;;;3.05;;
39032;SDS011;24794;51.982;5.878;2023-04-25T01:09:51;13.18;;;2.83;;
39032;SDS011;24794;51.982;5.878;2023-04-25T01:10:52;14.48;;;3.20;;
39032;SDS011;24794;51.982;5.878;2023-04-25T01:11:53;10.25;;;2.70;;
39032;SDS011;24794;51.982;5.878;2023-04-25T01:12:53;9.88;;;2.45;;
39032;SDS011;24794;51.982;5.878;2023-04-25T01:13:54;11.90;;;3.03;;
39032;SDS011;24794;51.982;5.878;2023-04-25T01:14:55;11.15;;;3.00;;
39032;SDS011;24794;51.982;5.878;2023-04-25T01:15:55;13.02;;;3.30;;
39032;SDS011;24794;51.982;5.878;2023-04-25T01:16:56;11.23;;;2.85;;
39032;SDS011;24794;51.982;5.878;2023-04-25T01:17:58;13.40;;;2.78;;
39032;SDS011;24794;51.982;5.878;2023-04-25T01:19:00;13.45;;;3.25;;
39032;SDS011;24794;51.982;5.878;2023-04-25T01:20:04;10.35;;;3.33;;
39032;SDS011;24794;51.982;5.878;2023-04-25T01:21:11;17.38;;;4.00;;
39032;SDS011;24794;51.982;5.878;2023-04-25T01:22:15;14.60;;;3.25;;
39032;SDS011;24794;51.982;5.878;2023-04-25T01:23:16;14.50;;;3.42;;
39032;SDS011;24794;51.982;5.878;2023-04-25T01:24:18;12.98;;;3.30;;
39032;SDS011;24794;51.982;5.878;2023-04-25T01:25:19;17.30;;;3.25;;
39032;SDS011;24794;51.982;5.878;2023-04-25T01:26:20;16.52;;;3.47;;
39032;SDS011;24794;51.982;5.878;2023-04-25T01:27:22;17.80;;;3.38;;
39032;SDS011;24794;51.982;5.878;2023-04-25T01:28:22;15.75;;;3.55;;
39032;SDS011;24794;51.982;5.878;2023-04-25T01:29:23;12.65;;;3.47;;
39032;SDS011;24794;51.982;5.878;2023-04-25T01:30:25;13.43;;;3.67;;
39032;SDS011;24794;51.982;5.878;2023-04-25T01:31:27;14.73;;;3.42;;
39032;SDS011;24794;51.982;5.878;2023-04-25T01:32:28;14.95;;;3.47;;
39032;SDS011;24794;51.982;5.878;2023-04-25T01:33:38;14.13;;;3.53;;
39032;SDS011;24794;51.982;5.878;2023-04-25T01:34:38;15.82;;;3.63;;
39032;SDS011;24794;51.982;5.878;2023-04-25T01:35:39;11.02;;;3.20;;
39032;SDS011;24794;51.982;5.878;2023-04-25T01:36:40;11.32;;;3.38;;
39032;SDS011;24794;51.982;5.878;2023-04-25T01:37:44;13.57;;;3.33;;
39032;SDS011;24794;51.982;5.878;2023-04-25T01:38:45;14.88;;;3.20;;
39032;SDS011;24794;51.982;5.878;2023-04-25T01:39:47;14.63;;;3.75;;
39032;SDS011;24794;51.982;5.878;2023-04-25T01:40:48;21.85;;;3.90;;
39032;SDS011;24794;51.982;5.878;2023-04-25T01:41:51;9.60;;;3.67;;
39032;SDS011;24794;51.982;5.878;2023-04-25T01:42:52;13.45;;;3.35;;
39032;SDS011;24794;51.982;5.878;2023-04-25T01:43:52;11.77;;;3.00;;
39032;SDS011;24794;51.982;5.878;2023-04-25T01:44:53;11.45;;;3.15;;
39032;SDS011;24794;51.982;5.878;2023-04-25T01:45:53;14.52;;;3.33;;
39032;SDS011;24794;51.982;5.878;2023-04-25T01:46:54;13.85;;;3.20;;
39032;SDS011;24794;51.982;5.878;2023-04-25T01:47:55;16.45;;;3.28;;
39032;SDS011;24794;51.982;5.878;2023-04-25T01:48:59;11.40;;;3.00;;
39032;SDS011;24794;51.982;5.878;2023-04-25T01:49:59;8.52;;;2.88;;
39032;SDS011;24794;51.982;5.878;2023-04-25T01:51:00;15.02;;;3.08;;
39032;SDS011;24794;51.982;5.878;2023-04-25T01:52:00;13.90;;;3.47;;
39032;SDS011;24794;51.982;5.878;2023-04-25T01:53:01;14.57;;;3.05;;
39032;SDS011;24794;51.982;5.878;2023-04-25T01:54:02;12.05;;;3.30;;
39032;SDS011;24794;51.982;5.878;2023-04-25T01:55:02;13.73;;;3.47;;
39032;SDS011;24794;51.982;5.878;2023-04-25T01:56:04;15.30;;;3.55;;
39032;SDS011;24794;51.982;5.878;2023-04-25T01:57:05;12.98;;;3.00;;
39032;SDS011;24794;51.982;5.878;2023-04-25T01:58:05;15.05;;;3.40;;
39032;SDS011;24794;51.982;5.878;2023-04-25T01:59:09;13.75;;;3.17;;
39032;SDS011;24794;51.982;5.878;2023-04-25T02:00:10;19.80;;;4.28;;
39032;SDS011;24794;51.982;5.878;2023-04-25T02:01:11;10.52;;;3.10;;
39032;SDS011;24794;51.982;5.878;2023-04-25T02:02:12;10.85;;;3.03;;
39032;SDS011;24794;51.982;5.878;2023-04-25T02:03:12;12.48;;;3.35;;
39032;SDS011;24794;51.982;5.878;2023-04-25T02:04:13;17.92;;;3.10;;
39032;SDS011;24794;51.982;5.878;2023-04-25T02:05:13;11.20;;;3.28;;
39032;SDS011;24794;51.982;5.878;2023-04-25T02:06:14;14.40;;;3.35;;
39032;SDS011;24794;51.982;5.878;2023-04-25T02:07:15;15.50;;;2.85;;
39032;SDS011;24794;51.982;5.878;2023-04-25T02:08:16;15.80;;;3.30;;
39032;SDS011;24794;51.982;5.878;2023-04-25T02:09:17;13.55;;;2.92;;
39032;SDS011;24794;51.982;5.878;2023-04-25T02:10:18;10.48;;;3.05;;
39032;SDS011;24794;51.982;5.878;2023-04-25T02:11:18;9.90;;;2.92;;
39032;SDS011;24794;51.982;5.878;2023-04-25T02:12:19;8.85;;;2.55;;
39032;SDS011;24794;51.982;5.878;2023-04-25T02:13:19;14.82;;;3.28;;
39032;SDS011;24794;51.982;5.878;2023-04-25T02:14:20;8.18;;;2.47;;
39032;SDS011;24794;51.982;5.878;2023-04-25T02:15:20;10.70;;;2.80;;
39032;SDS011;24794;51.982;5.878;2023-04-25T02:16:21;10.98;;;2.50;;
39032;SDS011;24794;51.982;5.878;2023-04-25T02:17:22;10.20;;;2.58;;
39032;SDS011;24794;51.982;5.878;2023-04-25T02:18:22;12.38;;;2.75;;
39032;SDS011;24794;51.982;5.878;2023-04-25T02:19:23;12.70;;;3.30;;
39032;SDS011;24794;51.982;5.878;2023-04-25T02:20:24;15.13;;;3.38;;
39032;SDS011;24794;51.982;5.878;2023-04-25T02:21:25;10.25;;;3.13;;
39032;SDS011;24794;51.982;5.878;2023-04-25T02:22:26;13.68;;;3.15;;
39032;SDS011;24794;51.982;5.878;2023-04-25T02:23:27;14.38;;;3.38;;
39032;SDS011;24794;51.982;5.878;2023-04-25T02:24:28;18.83;;;3.85;;
39032;SDS011;24794;51.982;5.878;2023-04-25T02:25:29;20.92;;;4.22;;
39032;SDS011;24794;51.982;5.878;2023-04-25T02:26:29;17.25;;;3.80;;
39032;SDS011;24794;51.982;5.878;2023-04-25T02:27:30;12.30;;;3.10;;
39032;SDS011;24794;51.982;5.878;2023-04-25T02:28:31;13.48;;;3.05;;
39032;SDS011;24794;51.982;5.878;2023-04-25T02:29:31;14.15;;;3.10;;
39032;SDS011;24794;51.982;5.878;2023-04-25T02:30:32;18.65;;;3.45;;
39032;SDS011;24794;51.982;5.878;2023-04-25T02:31:32;14.05;;;3.50;;
39032;SDS011;24794;51.982;5.878;2023-04-25T02:32:33;9.73;;;2.90;;
39032;SDS011;24794;51.982;5.878;2023-04-25T02:33:36;17.17;;;3.78;;
39032;SDS011;24794;51.982;5.878;2023-04-25T02:34:37;12.00;;;3.17;;
39032;SDS011;24794;51.982;5.878;2023-04-25T02:35:37;14.48;;;3.55;;
39032;SDS011;24794;51.982;5.878;2023-04-25T02:36:38;19.17;;;3.58;;
39032;SDS011;24794;51.982;5.878;2023-04-25T02:37:39;14.85;;;3.15;;
39032;SDS011;24794;51.982;5.878;2023-04-25T02:38:40;10.45;;;3.45;;
39032;SDS011;24794;51.982;5.878;2023-04-25T02:39:41;9.93;;;3.20;;
39032;SDS011;24794;51.982;5.878;2023-04-25T02:40:41;21.65;;;3.78;;
39032;SDS011;24794;51.982;5.878;2023-04-25T02:41:42;14.70;;;3.42;;
39032;SDS011;24794;51.982;5.878;2023-04-25T02:42:42;14.93;;;3.85;;
39032;SDS011;24794;51.982;5.878;2023-04-25T02:43:45;14.13;;;3.45;;
39032;SDS011;24794;51.982;5.878;2023-04-25T02:44:46;14.65;;;3.08;;
39032;SDS011;24794;51.982;5.878;2023-04-25T02:45:46;9.48;;;2.97;;
39032;SDS011;24794;51.982;5.878;2023-04-25T02:46:47;14.75;;;3.13;;
39032;SDS011;24794;51.982;5.878;2023-04-25T02:47:47;13.13;;;2.83;;
39032;SDS011;24794;51.982;5.878;2023-04-25T02:48:48;14.75;;;3.33;;
39032;SDS011;24794;51.982;5.878;2023-04-25T02:49:48;14.60;;;3.72;;
39032;SDS011;24794;51.982;5.878;2023-04-25T02:50:49;12.07;;;3.22;;
39032;SDS011;24794;51.982;5.878;2023-04-25T02:51:49;13.90;;;3.10;;
39032;SDS011;24794;51.982;5.878;2023-04-25T02:52:50;13.85;;;3.42;;
39032;SDS011;24794;51.982;5.878;2023-04-25T02:53:50;16.30;;;3.47;;
39032;SDS011;24794;51.982;5.878;2023-04-25T02:54:51;12.63;;;2.90;;
39032;SDS011;24794;51.982;5.878;2023-04-25T02:55:52;12.93;;;2.70;;
39032;SDS011;24794;51.982;5.878;2023-04-25T02:56:52;14.02;;;3.47;;
39032;SDS011;24794;51.982;5.878;2023-04-25T02:57:53;13.90;;;3.17;;
39032;SDS011;24794;51.982;5.878;2023-04-25T02:58:55;15.32;;;3.60;;
39032;SDS011;24794;51.982;5.878;2023-04-25T02:59:55;13.80;;;3.00;;
39032;SDS011;24794;51.982;5.878;2023-04-25T03:00:56;16.67;;;3.55;;
39032;SDS011;24794;51.982;5.878;2023-04-25T03:01:56;11.68;;;3.10;;
39032;SDS011;24794;51.982;5.878;2023-04-25T03:02:57;13.23;;;3.20;;
39032;SDS011;24794;51.982;5.878;2023-04-25T03:03:57;11.70;;;2.78;;
39032;SDS011;24794;51.982;5.878;2023-04-25T03:04:58;10.75;;;2.70;;
39032;SDS011;24794;51.982;5.878;2023-04-25T03:05:58;13.18;;;3.60;;
39032;SDS011;24794;51.982;5.878;2023-04-25T03:06:59;9.98;;;2.55;;
39032;SDS011;24794;51.982;5.878;2023-04-25T03:08:00;13.52;;;2.85;;
39032;SDS011;24794;51.982;5.878;2023-04-25T03:09:00;10.10;;;2.85;;
39032;SDS011;24794;51.982;5.878;2023-04-25T03:10:01;9.90;;;2.65;;
39032;SDS011;24794;51.982;5.878;2023-04-25T03:11:02;11.23;;;2.45;;
39032;SDS011;24794;51.982;5.878;2023-04-25T03:12:02;11.00;;;2.85;;
39032;SDS011;24794;51.982;5.878;2023-04-25T03:13:03;13.05;;;3.38;;
39032;SDS011;24794;51.982;5.878;2023-04-25T03:14:04;12.32;;;2.83;;
39032;SDS011;24794;51.982;5.878;2023-04-25T03:15:05;10.88;;;3.00;;
39032;SDS011;24794;51.982;5.878;2023-04-25T03:16:06;12.10;;;2.90;;
39032;SDS011;24794;51.982;5.878;2023-04-25T03:17:06;11.80;;;2.97;;
39032;SDS011;24794;51.982;5.878;2023-04-25T03:18:07;12.73;;;3.72;;
39032;SDS011;24794;51.982;5.878;2023-04-25T03:19:07;12.23;;;3.20;;
39032;SDS011;24794;51.982;5.878;2023-04-25T03:20:08;10.02;;;3.03;;
39032;SDS011;24794;51.982;5.878;2023-04-25T03:21:09;8.20;;;2.50;;
39032;SDS011;24794;51.982;5.878;2023-04-25T03:22:09;10.20;;;2.97;;
39032;SDS011;24794;51.982;5.878;2023-04-25T03:23:10;8.50;;;2.60;;
39032;SDS011;24794;51.982;5.878;2023-04-25T03:24:11;9.65;;;2.67;;
39032;SDS011;24794;51.982;5.878;2023-04-25T03:25:11;12.93;;;2.47;;
39032;SDS011;24794;51.982;5.878;2023-04-25T03:26:12;10.88;;;2.88;;
39032;SDS011;24794;51.982;5.878;2023-04-25T03:27:13;10.80;;;2.72;;
39032;SDS011;24794;51.982;5.878;2023-04-25T03:28:14;10.50;;;2.80;;
39032;SDS011;24794;51.982;5.878;2023-04-25T03:29:15;10.35;;;2.70;;
39032;SDS011;24794;51.982;5.878;2023-04-25T03:30:15;10.27;;;2.90;;
39032;SDS011;24794;51.982;5.878;2023-04-25T03:31:16;11.13;;;2.40;;
39032;SDS011;24794;51.982;5.878;2023-04-25T03:32:16;8.23;;;2.55;;
39032;SDS011;24794;51.982;5.878;2023-04-25T03:33:17;10.30;;;2.78;;
39032;SDS011;24794;51.982;5.878;2023-04-25T03:34:17;14.77;;;3.40;;
39032;SDS011;24794;51.982;5.878;2023-04-25T03:35:18;10.55;;;2.67;;
39032;SDS011;24794;51.982;5.878;2023-04-25T03:36:18;8.73;;;2.63;;
39032;SDS011;24794;51.982;5.878;2023-04-25T03:37:19;8.82;;;2.67;;
39032;SDS011;24794;51.982;5.878;2023-04-25T03:38:19;10.07;;;2.95;;
39032;SDS011;24794;51.982;5.878;2023-04-25T03:39:20;11.65;;;2.63;;
39032;SDS011;24794;51.982;5.878;2023-04-25T03:40:20;11.07;;;3.03;;
39032;SDS011;24794;51.982;5.878;2023-04-25T03:41:21;11.48;;;2.78;;
39032;SDS011;24794;51.982;5.878;2023-04-25T03:42:21;10.95;;;2.60;;
39032;SDS011;24794;51.982;5.878;2023-04-25T03:43:22;8.63;;;2.63;;
39032;SDS011;24794;51.982;5.878;2023-04-25T03:44:23;11.10;;;2.53;;
39032;SDS011;24794;51.982;5.878;2023-04-25T03:45:24;12.07;;;3.30;;
39032;SDS011;24794;51.982;5.878;2023-04-25T03:46:25;8.68;;;2.40;;
39032;SDS011;24794;51.982;5.878;2023-04-25T03:47:25;10.43;;;2.45;;
39032;SDS011;24794;51.982;5.878;2023-04-25T03:48:26;12.25;;;2.75;;
39032;SDS011;24794;51.982;5.878;2023-04-25T03:49:27;12.82;;;2.80;;
39032;SDS011;24794;51.982;5.878;2023-04-25T03:50:27;14.23;;;2.90;;
39032;SDS011;24794;51.982;5.878;2023-04-25T03:51:28;11.27;;;2.63;;
39032;SDS011;24794;51.982;5.878;2023-04-25T03:52:28;19.98;;;3.20;;
39032;SDS011;24794;51.982;5.878;2023-04-25T03:53:29;13.38;;;3.10;;
39032;SDS011;24794;51.982;5.878;2023-04-25T03:54:29;8.70;;;3.03;;
39032;SDS011;24794;51.982;5.878;2023-04-25T03:55:30;10.40;;;3.00;;
39032;SDS011;24794;51.982;5.878;2023-04-25T03:56:31;9.88;;;2.55;;
39032;SDS011;24794;51.982;5.878;2023-04-25T03:57:31;12.35;;;2.80;;
39032;SDS011;24794;51.982;5.878;2023-04-25T03:58:32;16.98;;;3.13;;
39032;SDS011;24794;51.982;5.878;2023-04-25T03:59:32;11.18;;;2.88;;
39032;SDS011;24794;51.982;5.878;2023-04-25T04:00:33;14.20;;;3.42;;
39032;SDS011;24794;51.982;5.878;2023-04-25T04:01:33;10.43;;;2.60;;
39032;SDS011;24794;51.982;5.878;2023-04-25T04:02:34;9.63;;;2.83;;
39032;SDS011;24794;51.982;5.878;2023-04-25T04:03:36;8.80;;;2.40;;
39032;SDS011;24794;51.982;5.878;2023-04-25T04:04:36;11.60;;;2.53;;
39032;SDS011;24794;51.982;5.878;2023-04-25T04:05:37;6.95;;;2.13;;
39032;SDS011;24794;51.982;5.878;2023-04-25T04:06:40;11.82;;;2.67;;
39032;SDS011;24794;51.982;5.878;2023-04-25T04:07:40;11.70;;;2.50;;
39032;SDS011;24794;51.982;5.878;2023-04-25T04:08:42;11.88;;;2.78;;
39032;SDS011;24794;51.982;5.878;2023-04-25T04:09:43;8.60;;;2.95;;
39032;SDS011;24794;51.982;5.878;2023-04-25T04:10:43;10.18;;;2.85;;
39032;SDS011;24794;51.982;5.878;2023-04-25T04:11:44;12.63;;;3.20;;
39032;SDS011;24794;51.982;5.878;2023-04-25T04:12:44;12.25;;;2.80;;
39032;SDS011;24794;51.982;5.878;2023-04-25T04:13:45;15.40;;;3.10;;
39032;SDS011;24794;51.982;5.878;2023-04-25T04:14:46;8.25;;;2.70;;
39032;SDS011;24794;51.982;5.878;2023-04-25T04:15:46;12.95;;;3.08;;
39032;SDS011;24794;51.982;5.878;2023-04-25T04:16:47;12.13;;;2.83;;
39032;SDS011;24794;51.982;5.878;2023-04-25T04:17:48;13.05;;;3.08;;
39032;SDS011;24794;51.982;5.878;2023-04-25T04:18:48;12.15;;;3.30;;
39032;SDS011;24794;51.982;5.878;2023-04-25T04:19:49;18.48;;;3.15;;
39032;SDS011;24794;51.982;5.878;2023-04-25T04:20:49;11.07;;;3.35;;
39032;SDS011;24794;51.982;5.878;2023-04-25T04:21:50;9.27;;;2.70;;
39032;SDS011;24794;51.982;5.878;2023-04-25T04:22:51;20.23;;;3.40;;
39032;SDS011;24794;51.982;5.878;2023-04-25T04:23:51;11.18;;;3.03;;
39032;SDS011;24794;51.982;5.878;2023-04-25T04:24:52;14.07;;;2.83;;
39032;SDS011;24794;51.982;5.878;2023-04-25T04:25:54;9.85;;;2.97;;
39032;SDS011;24794;51.982;5.878;2023-04-25T04:26:56;14.63;;;3.20;;
39032;SDS011;24794;51.982;5.878;2023-04-25T04:27:56;13.45;;;2.90;;
39032;SDS011;24794;51.982;5.878;2023-04-25T04:28:58;9.70;;;2.63;;
39032;SDS011;24794;51.982;5.878;2023-04-25T04:29:59;9.48;;;2.50;;
39032;SDS011;24794;51.982;5.878;2023-04-25T04:31:00;11.90;;;3.08;;
39032;SDS011;24794;51.982;5.878;2023-04-25T04:32:00;13.23;;;2.67;;
39032;SDS011;24794;51.982;5.878;2023-04-25T04:33:01;12.77;;;2.63;;
39032;SDS011;24794;51.982;5.878;2023-04-25T04:34:02;10.13;;;3.08;;
39032;SDS011;24794;51.982;5.878;2023-04-25T04:35:03;9.70;;;2.83;;
39032;SDS011;24794;51.982;5.878;2023-04-25T04:36:06;8.95;;;2.65;;
39032;SDS011;24794;51.982;5.878;2023-04-25T04:37:07;13.32;;;2.67;;
39032;SDS011;24794;51.982;5.878;2023-04-25T04:38:09;13.15;;;2.63;;
39032;SDS011;24794;51.982;5.878;2023-04-25T04:39:12;9.65;;;2.75;;
39032;SDS011;24794;51.982;5.878;2023-04-25T04:40:13;7.20;;;1.80;;
39032;SDS011;24794;51.982;5.878;2023-04-25T04:41:15;7.10;;;2.20;;
39032;SDS011;24794;51.982;5.878;2023-04-25T04:42:16;10.40;;;2.63;;
39032;SDS011;24794;51.982;5.878;2023-04-25T04:43:17;11.23;;;3.03;;
39032;SDS011;24794;51.982;5.878;2023-04-25T04:44:18;14.45;;;3.60;;
39032;SDS011;24794;51.982;5.878;2023-04-25T04:45:19;11.60;;;2.95;;
39032;SDS011;24794;51.982;5.878;2023-04-25T04:46:20;10.77;;;2.65;;
39032;SDS011;24794;51.982;5.878;2023-04-25T04:47:21;9.02;;;2.50;;
39032;SDS011;24794;51.982;5.878;2023-04-25T04:48:23;16.83;;;3.28;;
39032;SDS011;24794;51.982;5.878;2023-04-25T04:49:24;10.32;;;2.60;;
39032;SDS011;24794;51.982;5.878;2023-04-25T04:50:24;8.70;;;2.58;;
39032;SDS011;24794;51.982;5.878;2023-04-25T04:51:26;16.38;;;2.65;;
39032;SDS011;24794;51.982;5.878;2023-04-25T04:52:27;10.55;;;2.72;;
39032;SDS011;24794;51.982;5.878;2023-04-25T04:53:27;17.73;;;3.60;;
39032;SDS011;24794;51.982;5.878;2023-04-25T04:54:28;14.32;;;3.05;;
39032;SDS011;24794;51.982;5.878;2023-04-25T04:55:28;12.15;;;3.22;;
39032;SDS011;24794;51.982;5.878;2023-04-25T04:56:29;13.02;;;3.25;;
39032;SDS011;24794;51.982;5.878;2023-04-25T04:57:33;14.18;;;3.42;;
39032;SDS011;24794;51.982;5.878;2023-04-25T04:58:35;10.15;;;2.90;;
39032;SDS011;24794;51.982;5.878;2023-04-25T04:59:36;12.10;;;2.78;;
39032;SDS011;24794;51.982;5.878;2023-04-25T05:00:37;11.57;;;2.67;;
39032;SDS011;24794;51.982;5.878;2023-04-25T05:01:38;10.07;;;2.30;;
39032;SDS011;24794;51.982;5.878;2023-04-25T05:02:38;12.50;;;2.85;;
39032;SDS011;24794;51.982;5.878;2023-04-25T05:03:39;7.28;;;2.00;;
39032;SDS011;24794;51.982;5.878;2023-04-25T05:04:40;10.20;;;2.70;;
39032;SDS011;24794;51.982;5.878;2023-04-25T05:05:41;7.78;;;2.17;;
39032;SDS011;24794;51.982;5.878;2023-04-25T05:06:41;9.48;;;2.50;;
39032;SDS011;24794;51.982;5.878;2023-04-25T05:07:42;7.03;;;2.28;;
39032;SDS011;24794;51.982;5.878;2023-04-25T05:08:42;8.02;;;2.47;;
39032;SDS011;24794;51.982;5.878;2023-04-25T05:09:43;13.65;;;2.15;;
39032;SDS011;24794;51.982;5.878;2023-04-25T05:10:44;6.13;;;2.00;;
39032;SDS011;24794;51.982;5.878;2023-04-25T05:11:45;8.13;;;2.00;;
39032;SDS011;24794;51.982;5.878;2023-04-25T05:12:45;8.27;;;2.15;;
39032;SDS011;24794;51.982;5.878;2023-04-25T05:13:46;8.02;;;2.10;;
39032;SDS011;24794;51.982;5.878;2023-04-25T05:14:47;10.75;;;2.20;;
39032;SDS011;24794;51.982;5.878;2023-04-25T05:15:48;9.45;;;2.40;;
39032;SDS011;24794;51.982;5.878;2023-04-25T05:16:48;9.25;;;2.30;;
39032;SDS011;24794;51.982;5.878;2023-04-25T05:17:49;9.25;;;2.17;;
39032;SDS011;24794;51.982;5.878;2023-04-25T05:18:49;6.95;;;1.98;;
39032;SDS011;24794;51.982;5.878;2023-04-25T05:19:50;8.98;;;2.25;;
39032;SDS011;24794;51.982;5.878;2023-04-25T05:20:50;15.18;;;2.70;;
39032;SDS011;24794;51.982;5.878;2023-04-25T05:21:51;7.55;;;2.17;;
39032;SDS011;24794;51.982;5.878;2023-04-25T05:22:52;6.13;;;2.20;;
39032;SDS011;24794;51.982;5.878;2023-04-25T05:23:53;8.88;;;2.55;;
39032;SDS011;24794;51.982;5.878;2023-04-25T05:24:54;10.02;;;2.42;;
39032;SDS011;24794;51.982;5.878;2023-04-25T05:25:54;6.97;;;2.45;;
39032;SDS011;24794;51.982;5.878;2023-04-25T05:26:55;10.88;;;2.70;;
39032;SDS011;24794;51.982;5.878;2023-04-25T05:27:56;6.15;;;2.20;;
39032;SDS011;24794;51.982;5.878;2023-04-25T05:28:57;10.63;;;2.33;;
39032;SDS011;24794;51.982;5.878;2023-04-25T05:29:58;7.75;;;2.20;;
39032;SDS011;24794;51.982;5.878;2023-04-25T05:30:58;7.75;;;2.50;;
39032;SDS011;24794;51.982;5.878;2023-04-25T05:31:59;9.40;;;2.45;;
39032;SDS011;24794;51.982;5.878;2023-04-25T05:32:59;7.95;;;2.10;;
39032;SDS011;24794;51.982;5.878;2023-04-25T05:34:01;9.85;;;2.25;;
39032;SDS011;24794;51.982;5.878;2023-04-25T05:35:02;9.13;;;2.47;;
39032;SDS011;24794;51.982;5.878;2023-04-25T05:36:03;10.05;;;2.45;;
39032;SDS011;24794;51.982;5.878;2023-04-25T05:37:03;5.53;;;2.10;;
39032;SDS011;24794;51.982;5.878;2023-04-25T05:38:04;11.43;;;2.55;;
39032;SDS011;24794;51.982;5.878;2023-04-25T05:39:05;8.50;;;2.30;;
39032;SDS011;24794;51.982;5.878;2023-04-25T05:40:06;7.80;;;2.50;;
39032;SDS011;24794;51.982;5.878;2023-04-25T05:41:07;8.57;;;2.47;;
39032;SDS011;24794;51.982;5.878;2023-04-25T05:42:08;14.05;;;2.83;;
39032;SDS011;24794;51.982;5.878;2023-04-25T05:43:08;8.13;;;2.45;;
39032;SDS011;24794;51.982;5.878;2023-04-25T05:44:09;6.28;;;2.10;;
39032;SDS011;24794;51.982;5.878;2023-04-25T05:45:10;9.95;;;2.53;;
39032;SDS011;24794;51.982;5.878;2023-04-25T05:46:10;6.82;;;2.05;;
39032;SDS011;24794;51.982;5.878;2023-04-25T05:47:11;7.40;;;2.60;;
39032;SDS011;24794;51.982;5.878;2023-04-25T05:48:12;7.35;;;2.53;;
39032;SDS011;24794;51.982;5.878;2023-04-25T05:49:12;7.43;;;2.35;;
39032;SDS011;24794;51.982;5.878;2023-04-25T05:50:13;5.47;;;2.15;;
39032;SDS011;24794;51.982;5.878;2023-04-25T05:51:13;12.18;;;2.65;;
39032;SDS011;24794;51.982;5.878;2023-04-25T05:52:14;9.23;;;2.40;;
39032;SDS011;24794;51.982;5.878;2023-04-25T05:53:15;9.98;;;2.05;;
39032;SDS011;24794;51.982;5.878;2023-04-25T05:54:16;8.13;;;2.13;;
39032;SDS011;24794;51.982;5.878;2023-04-25T05:55:17;6.72;;;2.38;;
39032;SDS011;24794;51.982;5.878;2023-04-25T05:56:18;8.88;;;2.30;;
39032;SDS011;24794;51.982;5.878;2023-04-25T05:57:25;6.40;;;2.17;;
39032;SDS011;24794;51.982;5.878;2023-04-25T05:58:26;7.07;;;2.10;;
39032;SDS011;24794;51.982;5.878;2023-04-25T05:59:27;6.18;;;1.95;;
39032;SDS011;24794;51.982;5.878;2023-04-25T06:00:27;5.10;;;1.92;;
39032;SDS011;24794;51.982;5.878;2023-04-25T06:01:28;5.18;;;1.85;;
39032;SDS011;24794;51.982;5.878;2023-04-25T06:02:29;4.78;;;1.55;;
39032;SDS011;24794;51.982;5.878;2023-04-25T06:03:29;12.43;;;2.30;;